Terminal Aerodrome Forecast
Issued by NWS Bismarck, ND

Home | Current Version | Previous Version | Graphics & Text | Print | Product List | Glossary On
Versions: 1 2 3 4 5 6 7 8 9 10 11 12 13 14 15 16 17 18 19 20
000
FTUS43 KBIS 281100
TAFBIS
TAF
KBIS 281134Z 2812/2912 09007KT P6SM SCT004 OVC080
      TEMPO 2812/2815 5SM BR BKN005 BKN080 OVC120
     FM281500 11007KT P6SM SCT012 BKN020
     FM282000 14007KT P6SM OVC015
     FM290300 16006KT P6SM BKN025=

USA.gov is the U.S. government's official web portal to all federal, state and local government web resources and services.